createdAt,value
2018-09-28T00:01:14.318Z,31.80
2018-09-28T00:03:42.057Z,32.10
2018-09-28T00:06:09.807Z,32.10
2018-09-28T00:08:37.642Z,32.00
2018-09-28T00:11:05.428Z,32.00
2018-09-28T00:13:33.246Z,32.20
2018-09-28T00:16:01.238Z,32.00
2018-09-28T00:18:29.250Z,32.60
2018-09-28T00:20:57.238Z,32.50
2018-09-28T00:23:25.359Z,32.40
2018-09-28T00:25:53.754Z,32.50
2018-09-28T00:28:21.937Z,32.80
2018-09-28T00:30:49.860Z,32.90
2018-09-28T00:33:17.572Z,32.40
2018-09-28T00:35:45.345Z,32.40
2018-09-28T00:38:13.228Z,32.60
2018-09-28T00:40:40.879Z,33.00
2018-09-28T00:43:08.792Z,33.00
2018-09-28T00:45:36.443Z,32.70
2018-09-28T00:48:04.559Z,33.00
2018-09-28T00:50:32.522Z,33.20
2018-09-28T00:53:00.284Z,33.00
2018-09-28T00:55:28.085Z,33.00
2018-09-28T00:57:55.747Z,33.20
2018-09-28T01:00:23.459Z,33.20
2018-09-28T01:02:51.127Z,33.40
2018-09-28T01:05:18.842Z,33.20
2018-09-28T01:07:46.555Z,33.20
2018-09-28T01:10:18.212Z,33.10
2018-09-28T01:12:45.890Z,33.10
2018-09-28T01:15:13.531Z,33.20
2018-09-28T01:17:41.283Z,33.40
2018-09-28T01:20:09.075Z,33.50
2018-09-28T01:22:37.115Z,34.10
2018-09-28T01:25:05.019Z,33.20
2018-09-28T01:27:33.028Z,33.40
2018-09-28T01:30:00.917Z,33.60
2018-09-28T01:32:28.580Z,33.70
2018-09-28T01:34:56.320Z,33.20
2018-09-28T01:37:24.065Z,33.60
2018-09-28T01:39:51.812Z,33.80
2018-09-28T01:42:19.466Z,33.70
2018-09-28T01:44:47.323Z,33.80
2018-09-28T01:47:15.292Z,34.20
2018-09-28T01:49:43.164Z,33.90
2018-09-28T01:52:11.151Z,34.20
2018-09-28T01:54:38.838Z,33.90
2018-09-28T01:57:08.736Z,34.30
2018-09-28T01:59:36.993Z,34.30
2018-09-28T02:02:04.992Z,34.60
2018-09-28T02:04:32.727Z,34.40
2018-09-28T02:07:00.483Z,34.40
2018-09-28T02:09:28.168Z,34.40
2018-09-28T02:11:56.039Z,34.50
2018-09-28T02:14:23.989Z,34.50
2018-09-28T02:16:52.032Z,34.50
2018-09-28T02:19:19.932Z,34.80
2018-09-28T02:21:48.023Z,34.30
2018-09-28T02:24:15.991Z,34.20
2018-09-28T02:26:43.996Z,34.20
2018-09-28T02:29:11.799Z,34.20
2018-09-28T02:31:39.637Z,34.30
2018-09-28T02:34:07.251Z,34.30
2018-09-28T02:36:34.937Z,34.20
2018-09-28T02:39:03.195Z,34.60
2018-09-28T02:41:31.055Z,34.70
2018-09-28T02:43:59.275Z,34.60
2018-09-28T02:46:27.255Z,34.50
2018-09-28T02:48:55.613Z,34.90
2018-09-28T02:51:23.596Z,34.90
2018-09-28T02:53:51.396Z,35.00
2018-09-28T02:56:19.200Z,34.70
2018-09-28T02:58:47.038Z,34.70
2018-09-28T03:01:14.723Z,34.70
2018-09-28T03:03:42.415Z,34.30
2018-09-28T03:06:10.195Z,34.70
2018-09-28T03:08:38.041Z,34.80
2018-09-28T03:11:06.089Z,34.80
2018-09-28T03:13:34.168Z,35.00
2018-09-28T03:16:01.990Z,35.00
2018-09-28T03:18:29.839Z,34.90
2018-09-28T03:20:57.580Z,35.00
2018-09-28T03:23:25.263Z,34.70
2018-09-28T03:25:53.025Z,34.50
2018-09-28T03:28:20.765Z,34.70
2018-09-28T03:30:49.021Z,34.60
2018-09-28T03:33:17.541Z,35.00
2018-09-28T03:35:45.847Z,34.70
2018-09-28T03:38:14.208Z,35.00
2018-09-28T03:40:42.294Z,34.70
2018-09-28T03:43:10.236Z,34.60
2018-09-28T03:45:38.197Z,34.70
2018-09-28T03:48:06.380Z,34.60
2018-09-28T03:50:34.231Z,34.30
2018-09-28T03:53:01.913Z,34.90
2018-09-28T03:55:29.832Z,34.80
2018-09-28T03:57:57.666Z,34.70
2018-09-28T04:00:25.393Z,34.70
2018-09-28T04:02:53.599Z,34.40
2018-09-28T04:05:21.709Z,34.40
2018-09-28T04:07:49.641Z,34.20
2018-09-28T04:10:17.624Z,34.10
2018-09-28T04:12:45.698Z,34.30
2018-09-28T04:15:13.951Z,34.20
2018-09-28T04:17:41.848Z,34.20
2018-09-28T04:20:09.522Z,34.40
2018-09-28T04:22:37.135Z,34.40
2018-09-28T04:25:04.895Z,34.60
2018-09-28T04:27:32.602Z,34.30
2018-09-28T04:30:00.760Z,34.30
2018-09-28T04:32:28.963Z,34.30
2018-09-28T04:34:56.918Z,34.30
2018-09-28T04:37:24.863Z,34.30
2018-09-28T04:39:52.675Z,34.10
2018-09-28T04:42:20.603Z,34.10
2018-09-28T04:44:54.523Z,33.70
2018-09-28T04:47:24.274Z,33.60
2018-09-28T04:49:54.961Z,33.80
2018-09-28T04:52:25.356Z,33.70
2018-09-28T04:54:53.078Z,34.00
2018-09-28T04:57:21.263Z,33.60
2018-09-28T04:59:49.361Z,33.70
2018-09-28T05:02:24.584Z,33.50
2018-09-28T05:05:01.539Z,33.20
2018-09-28T05:07:31.907Z,33.20
2018-09-28T05:10:24.356Z,33.40
2018-09-28T05:12:52.498Z,33.30
2018-09-28T05:15:20.846Z,33.40
2018-09-28T05:17:49.196Z,33.20
2018-09-28T05:20:25.632Z,33.40
2018-09-28T05:22:55.072Z,33.20
2018-09-28T05:25:23.734Z,33.00
2018-09-28T05:28:00.575Z,33.00
2018-09-28T05:30:29.676Z,32.80
2018-09-28T05:33:06.389Z,33.00
2018-09-28T05:35:35.136Z,33.20
2018-09-28T05:38:08.512Z,33.20
2018-09-28T05:40:36.930Z,33.10
2018-09-28T05:43:05.040Z,32.90
2018-09-28T05:45:54.712Z,32.90
2018-09-28T05:48:24.518Z,33.10
2018-09-28T05:50:55.693Z,32.90
2018-09-28T05:53:23.555Z,33.30
2018-09-28T05:55:54.587Z,33.10
2018-09-28T05:58:29.394Z,33.30
2018-09-28T06:01:02.926Z,33.50
2018-09-28T06:03:52.945Z,33.40
2018-09-28T06:06:26.944Z,33.40
2018-09-28T06:08:55.745Z,33.70
2018-09-28T06:11:24.090Z,33.90
2018-09-28T06:14:04.170Z,33.70
2018-09-28T06:19:32.396Z,33.80
2018-09-28T06:22:27.869Z,34.00
2018-09-28T06:24:56.254Z,34.00
2018-09-28T06:27:24.137Z,33.80
2018-09-28T06:29:56.663Z,34.10
2018-09-28T06:32:25.049Z,34.20
2018-09-28T06:34:54.431Z,34.70
2018-09-28T06:37:22.476Z,34.70
2018-09-28T06:39:50.591Z,34.80
2018-09-28T06:42:18.677Z,34.90
2018-09-28T06:44:46.600Z,35.30
2018-09-28T06:47:14.692Z,35.30
2018-09-28T06:49:42.579Z,35.90
2018-09-28T06:52:10.495Z,35.70
2018-09-28T06:54:38.302Z,36.10
2018-09-28T06:57:06.068Z,36.90
2018-09-28T06:59:34.628Z,36.90
2018-09-28T07:02:02.336Z,36.90
2018-09-28T07:04:30.039Z,37.00
2018-09-28T07:06:57.829Z,37.00
2018-09-28T07:09:25.745Z,37.00
2018-09-28T07:11:53.852Z,37.10
2018-09-28T07:14:22.459Z,37.20
2018-09-28T07:16:51.033Z,37.20
2018-09-28T07:19:20.443Z,37.30
2018-09-28T07:21:54.582Z,37.30
2018-09-28T07:27:08.793Z,37.10
2018-09-28T07:29:37.100Z,37.00
2018-09-28T07:32:04.896Z,37.20
2018-09-28T07:34:37.106Z,36.30
2018-09-28T07:37:05.085Z,36.20
2018-09-28T07:39:32.772Z,36.20
2018-09-28T07:42:00.921Z,36.20
2018-09-28T07:44:28.537Z,36.50
2018-09-28T07:46:56.553Z,36.40
2018-09-28T07:49:24.445Z,36.80
2018-09-28T07:51:53.460Z,35.90
2018-09-28T07:54:21.549Z,35.90
2018-09-28T07:56:55.206Z,35.90
2018-09-28T07:59:24.271Z,36.10
2018-09-28T08:01:52.192Z,35.80
2018-09-28T08:04:21.927Z,35.80
2018-09-28T08:06:49.885Z,35.70
2018-09-28T08:09:17.723Z,35.50
2018-09-28T08:11:45.607Z,35.40
2018-09-28T08:14:13.255Z,35.70
2018-09-28T08:16:44.269Z,35.70
2018-09-28T08:19:12.427Z,36.20
2018-09-28T08:21:40.327Z,35.00
2018-09-28T08:24:24.452Z,35.00
2018-09-28T08:26:53.487Z,35.10
2018-09-28T08:29:24.353Z,35.00
2018-09-28T08:31:52.095Z,35.40
2018-09-28T08:34:19.854Z,34.30
2018-09-28T08:36:48.202Z,34.40
2018-09-28T08:39:16.353Z,34.40
2018-09-28T08:41:56.427Z,34.70
2018-09-28T08:47:39.649Z,34.10
2018-09-28T08:50:08.320Z,34.20
2018-09-28T08:52:36.126Z,34.00
2018-09-28T08:55:04.658Z,33.70
2018-09-28T08:57:32.643Z,33.80
2018-09-28T09:00:01.010Z,33.90
2018-09-28T09:02:29.443Z,33.40
2018-09-28T09:04:58.151Z,33.10
2018-09-28T09:07:26.976Z,32.70
2018-09-28T09:09:58.707Z,32.70
2018-09-28T09:12:26.711Z,31.90
2018-09-28T09:14:57.482Z,31.40
2018-09-28T09:17:38.900Z,31.60
2018-09-28T09:20:08.689Z,30.90
2018-09-28T09:22:36.232Z,31.10
2018-09-28T09:25:03.927Z,30.70
2018-09-28T09:27:31.692Z,30.80
2018-09-28T09:29:59.426Z,30.60
2018-09-28T09:32:27.228Z,30.10
2018-09-28T09:34:55.471Z,30.20
2018-09-28T09:37:23.573Z,29.60
2018-09-28T09:39:51.633Z,29.80
2018-09-28T09:42:19.485Z,29.40
2018-09-28T09:44:50.029Z,29.50
2018-09-28T09:47:18.405Z,28.80
2018-09-28T09:49:46.214Z,29.10
2018-09-28T09:52:14.111Z,29.30
2018-09-28T09:54:41.921Z,29.60
2018-09-28T09:57:09.589Z,29.60
2018-09-28T09:59:37.273Z,29.10
2018-09-28T10:02:10.549Z,29.50
2018-09-28T10:04:38.776Z,28.60
2018-09-28T10:07:10.131Z,28.40
2018-09-28T10:09:39.867Z,28.80
2018-09-28T10:12:09.281Z,29.00
2018-09-28T10:14:37.074Z,28.80
2018-09-28T10:17:05.208Z,28.10
2018-09-28T10:19:33.475Z,28.20
2018-09-28T10:22:01.284Z,27.70
2018-09-28T10:24:29.247Z,27.20
2018-09-28T10:26:56.964Z,27.50
2018-09-28T10:29:25.214Z,28.00
2018-09-28T10:31:53.643Z,27.20
2018-09-28T10:34:21.929Z,26.30
2018-09-28T10:36:49.757Z,26.50
2018-09-28T10:39:17.759Z,26.00
2018-09-28T10:41:47.404Z,26.50
2018-09-28T10:44:15.432Z,26.00
2018-09-28T10:46:43.673Z,26.10
2018-09-28T10:49:11.608Z,25.60
2018-09-28T10:51:39.526Z,24.80
2018-09-28T10:54:08.271Z,24.60
2018-09-28T10:56:35.998Z,22.20
2018-09-28T10:59:14.865Z,22.10
2018-09-28T11:01:43.281Z,22.10
2018-09-28T11:04:14.650Z,22.30
2018-09-28T11:06:42.374Z,22.30
2018-09-28T11:09:11.403Z,22.40
2018-09-28T11:11:39.971Z,22.50
2018-09-28T11:14:07.943Z,23.40
2018-09-28T11:16:35.957Z,22.50
2018-09-28T11:19:10.416Z,21.70
2018-09-28T11:21:38.393Z,21.20
2018-09-28T11:24:06.113Z,20.20
2018-09-28T11:26:35.360Z,20.60
2018-09-28T11:29:03.336Z,20.60
2018-09-28T11:31:31.326Z,20.10
2018-09-28T11:33:59.299Z,20.00
2018-09-28T11:36:27.072Z,20.40
2018-09-28T11:38:56.723Z,20.60
2018-09-28T11:41:24.568Z,22.30
2018-09-28T11:43:53.221Z,22.80
2018-09-28T11:46:20.835Z,22.80
2018-09-28T11:48:48.824Z,22.80
2018-09-28T11:51:16.804Z,22.80
2018-09-28T11:53:45.181Z,23.10
2018-09-28T11:56:13.148Z,23.30
2018-09-28T11:58:41.307Z,24.10
2018-09-28T12:01:09.119Z,24.70
2018-09-28T12:03:37.378Z,24.00
2018-09-28T12:06:05.459Z,23.40
2018-09-28T12:08:34.795Z,24.10
2018-09-28T12:11:02.939Z,24.70
2018-09-28T12:13:35.095Z,25.50
2018-09-28T12:16:05.150Z,26.60
2018-09-28T12:18:34.939Z,27.20
2018-09-28T12:21:02.595Z,27.10
2018-09-28T12:23:31.048Z,26.70
2018-09-28T12:25:59.288Z,28.10
2018-09-28T12:28:28.425Z,28.10
2018-09-28T12:30:56.420Z,28.40
2018-09-28T12:33:24.209Z,29.80
2018-09-28T12:35:51.920Z,29.40
2018-09-28T12:38:19.802Z,30.00
2018-09-28T12:40:47.751Z,30.30
2018-09-28T12:43:15.698Z,30.40
2018-09-28T12:45:44.648Z,31.00
2018-09-28T12:48:13.291Z,31.00
2018-09-28T12:50:41.006Z,30.00
2018-09-28T12:53:10.212Z,30.80
2018-09-28T12:55:38.342Z,31.30
2018-09-28T12:58:06.416Z,31.70
2018-09-28T13:00:38.900Z,31.90
2018-09-28T13:03:08.113Z,31.30
2018-09-28T13:05:37.853Z,31.40
2018-09-28T13:08:06.384Z,31.70
2018-09-28T13:10:34.748Z,31.90
2018-09-28T13:13:03.386Z,32.60
2018-09-28T13:15:31.584Z,32.70
2018-09-28T13:18:00.497Z,33.50
2018-09-28T13:20:29.104Z,32.60
2018-09-28T13:22:57.314Z,33.20
2018-09-28T13:25:25.897Z,32.90
2018-09-28T13:27:55.531Z,33.00
2018-09-28T13:30:24.798Z,33.20
2018-09-28T13:32:53.162Z,33.40
2018-09-28T13:35:22.048Z,34.00
2018-09-28T13:37:50.142Z,34.30
2018-09-28T13:40:18.367Z,35.00
2018-09-28T13:42:46.830Z,35.00
2018-09-28T13:45:14.840Z,35.40
2018-09-28T13:47:42.937Z,35.20
2018-09-28T13:50:11.071Z,36.20
2018-09-28T13:52:38.966Z,36.20
2018-09-28T13:57:53.443Z,36.30
2018-09-28T14:00:21.585Z,36.40
2018-09-28T14:02:50.775Z,36.70
2018-09-28T14:05:18.868Z,36.80
2018-09-28T14:07:47.215Z,36.70
2018-09-28T14:10:16.582Z,37.30
2018-09-28T14:12:45.545Z,36.50
2018-09-28T14:15:13.728Z,36.70
2018-09-28T14:17:42.606Z,37.50
2018-09-28T14:20:12.397Z,36.80
2018-09-28T14:22:41.651Z,37.00
2018-09-28T14:25:09.619Z,36.50
2018-09-28T14:27:37.455Z,36.80
2018-09-28T14:30:05.683Z,36.60
2018-09-28T14:32:34.402Z,36.70
2018-09-28T14:35:02.799Z,37.20
2018-09-28T14:37:33.158Z,37.30
2018-09-28T14:40:03.005Z,36.70
2018-09-28T14:42:31.822Z,36.70
2018-09-28T14:44:59.475Z,37.70
2018-09-28T14:47:27.230Z,36.90
2018-09-28T14:53:28.564Z,36.80
2018-09-28T14:55:56.289Z,37.10
2018-09-28T14:58:30.403Z,36.50
2018-09-28T15:00:59.513Z,36.10
2018-09-28T15:03:27.453Z,35.80
2018-09-28T15:05:55.961Z,35.70
2018-09-28T15:08:23.943Z,35.70
2018-09-28T15:10:52.098Z,35.70
2018-09-28T15:13:21.192Z,35.40
2018-09-28T15:15:49.369Z,36.00
2018-09-28T15:18:20.998Z,35.70
2018-09-28T15:20:49.428Z,35.90
2018-09-28T15:23:29.927Z,35.20
2018-09-28T15:25:57.988Z,35.40
2018-09-28T15:28:26.640Z,35.30
2018-09-28T15:30:56.494Z,35.00
2018-09-28T15:33:24.458Z,34.90
2018-09-28T15:35:52.820Z,34.60
2018-09-28T15:38:21.001Z,34.80
2018-09-28T15:40:50.926Z,35.50
2018-09-28T15:43:19.034Z,35.10
2018-09-28T15:45:47.035Z,35.20
2018-09-28T15:48:14.912Z,34.90
2018-09-28T15:50:43.677Z,35.30
2018-09-28T15:53:12.575Z,35.10
2018-09-28T15:55:40.814Z,35.30
2018-09-28T15:58:08.921Z,35.20
2018-09-28T16:00:39.073Z,35.00
2018-09-28T16:03:07.149Z,35.00
2018-09-28T16:05:35.028Z,35.00
2018-09-28T16:08:04.157Z,34.30
2018-09-28T16:10:32.244Z,34.10
2018-09-28T16:13:00.413Z,34.10
2018-09-28T16:15:28.251Z,33.90
2018-09-28T16:17:56.969Z,32.80
2018-09-28T16:20:24.795Z,33.00
2018-09-28T16:22:52.502Z,32.30
2018-09-28T16:25:20.500Z,32.20
2018-09-28T16:27:48.203Z,32.40
2018-09-28T16:30:15.832Z,31.90
2018-09-28T16:32:43.977Z,30.90
2018-09-28T16:35:12.009Z,31.20
2018-09-28T16:37:40.687Z,31.10
2018-09-28T16:40:09.232Z,30.90
2018-09-28T16:42:38.018Z,30.40
2018-09-28T16:45:06.335Z,30.30
2018-09-28T16:47:34.268Z,29.80
2018-09-28T16:50:02.618Z,29.20
2018-09-28T16:52:32.151Z,29.30
2018-09-28T16:55:00.248Z,29.30
2018-09-28T16:57:28.385Z,29.40
2018-09-28T16:59:56.345Z,28.70
2018-09-28T17:02:25.090Z,27.10
2018-09-28T17:04:52.999Z,26.90
2018-09-28T17:07:22.163Z,26.30
2018-09-28T17:09:50.139Z,26.30
2018-09-28T17:12:18.797Z,25.20
2018-09-28T17:14:46.633Z,25.20
2018-09-28T17:17:14.648Z,25.20
2018-09-28T17:19:42.664Z,25.40
2018-09-28T17:22:10.626Z,25.10
2018-09-28T17:24:38.490Z,25.30
2018-09-28T17:27:08.921Z,25.00
2018-09-28T17:29:36.834Z,25.10
2018-09-28T17:32:05.473Z,24.70
2018-09-28T17:34:33.149Z,25.30
2018-09-28T17:37:01.612Z,24.60
2018-09-28T17:39:30.013Z,25.30
2018-09-28T17:41:57.901Z,25.20
2018-09-28T17:44:27.316Z,25.30
2018-09-28T17:46:55.412Z,25.10
2018-09-28T17:49:23.104Z,25.70
2018-09-28T17:51:51.970Z,25.80
2018-09-28T17:54:19.799Z,25.70
2018-09-28T17:56:50.529Z,25.80
2018-09-28T17:59:18.409Z,25.50
2018-09-28T18:01:46.143Z,26.40
2018-09-28T18:04:16.235Z,27.00
2018-09-28T18:06:44.887Z,26.00
2018-09-28T18:09:12.814Z,26.00
2018-09-28T18:11:42.639Z,26.50
2018-09-28T18:14:10.548Z,25.90
2018-09-28T18:16:38.609Z,26.60
2018-09-28T18:19:07.201Z,26.00
2018-09-28T18:21:35.169Z,26.10
2018-09-28T18:24:02.882Z,26.40
2018-09-28T18:26:30.662Z,26.30
2018-09-28T18:28:58.724Z,26.10
2018-09-28T18:31:27.801Z,26.20
2018-09-28T18:33:55.689Z,26.20
2018-09-28T18:36:24.468Z,26.20
2018-09-28T18:38:53.164Z,25.90
2018-09-28T18:41:24.515Z,26.10
2018-09-28T18:46:45.643Z,26.00
2018-09-28T18:49:14.545Z,25.80
2018-09-28T18:51:42.374Z,26.60
2018-09-28T18:54:10.435Z,26.50
2018-09-28T18:56:38.280Z,26.50
2018-09-28T18:59:06.512Z,26.00
2018-09-28T19:01:38.279Z,26.20
2018-09-28T19:04:06.795Z,25.90
2018-09-28T19:06:35.040Z,26.20
2018-09-28T19:09:05.641Z,26.10
2018-09-28T19:11:40.957Z,26.20
2018-09-28T19:14:10.947Z,26.20
2018-09-28T19:16:42.624Z,26.20
2018-09-28T19:21:44.294Z,26.40
2018-09-28T19:24:13.154Z,26.30
2018-09-28T19:26:41.605Z,26.30
2018-09-28T19:29:15.580Z,26.30
2018-09-28T19:31:43.870Z,26.20
2018-09-28T19:34:13.541Z,25.90
2018-09-28T19:36:55.333Z,25.90
2018-09-28T19:39:23.392Z,26.10
2018-09-28T19:41:51.575Z,25.70
2018-09-28T19:44:20.137Z,25.70
2018-09-28T19:46:51.415Z,26.10
2018-09-28T19:49:19.630Z,26.00
2018-09-28T19:51:48.952Z,26.00
2018-09-28T19:54:18.045Z,26.50
2018-09-28T19:56:46.827Z,26.30
2018-09-28T20:02:18.102Z,26.10
2018-09-28T20:04:46.329Z,26.00
2018-09-28T20:07:14.573Z,26.50
2018-09-28T20:09:42.343Z,26.40
2018-09-28T20:12:10.384Z,26.60
2018-09-28T20:14:46.531Z,26.40
2018-09-28T20:17:14.439Z,26.80
2018-09-28T20:19:42.553Z,26.70
2018-09-28T20:22:12.838Z,26.90
2018-09-28T20:24:45.545Z,27.00
2018-09-28T20:27:14.883Z,27.00
2018-09-28T20:29:42.834Z,27.10
2018-09-28T20:32:11.310Z,27.00
2018-09-28T20:34:39.112Z,27.20
2018-09-28T20:37:07.284Z,27.10
2018-09-28T20:39:35.098Z,27.30
2018-09-28T20:42:03.151Z,27.30
2018-09-28T20:44:30.832Z,27.40
2018-09-28T20:46:58.757Z,27.20
2018-09-28T20:49:27.093Z,27.20
2018-09-28T20:51:55.273Z,27.30
2018-09-28T20:54:24.230Z,27.40
2018-09-28T20:56:52.214Z,27.60
2018-09-28T21:00:01.045Z,27.50
2018-09-28T21:02:28.966Z,27.50
2018-09-28T21:05:02.231Z,27.40
2018-09-28T21:07:29.941Z,27.30
2018-09-28T21:09:59.663Z,27.30
2018-09-28T21:12:28.510Z,27.50
2018-09-28T21:14:57.938Z,27.40
2018-09-28T21:17:26.071Z,27.60
2018-09-28T21:19:53.914Z,27.50
2018-09-28T21:22:21.665Z,27.50
2018-09-28T21:24:49.768Z,27.40
2018-09-28T21:27:18.054Z,27.70
2018-09-28T21:29:47.821Z,27.90
2018-09-28T21:32:15.874Z,27.90
2018-09-28T21:34:44.794Z,27.60
2018-09-28T21:37:14.532Z,27.60
2018-09-28T21:39:45.297Z,27.50
2018-09-28T21:42:14.440Z,27.60
2018-09-28T21:44:45.355Z,27.90
2018-09-28T21:47:14.718Z,28.10
2018-09-28T21:49:48.323Z,27.60
2018-09-28T21:52:16.948Z,27.50
2018-09-28T21:54:45.210Z,27.60
2018-09-28T21:57:14.196Z,27.70
2018-09-28T21:59:47.984Z,27.80
2018-09-28T22:02:16.110Z,28.00
2018-09-28T22:04:44.878Z,28.30
2018-09-28T22:07:13.083Z,28.30
2018-09-28T22:09:41.937Z,28.00
2018-09-28T22:12:09.818Z,27.80
2018-09-28T22:14:38.688Z,28.10
2018-09-28T22:17:06.502Z,28.10
2018-09-28T22:19:34.319Z,27.80
2018-09-28T22:22:02.581Z,27.80
2018-09-28T22:24:35.380Z,27.70
2018-09-28T22:27:03.659Z,28.00
2018-09-28T22:29:31.780Z,28.20
2018-09-28T22:31:59.433Z,28.20
2018-09-28T22:34:27.109Z,28.10
2018-09-28T22:36:55.420Z,28.20
2018-09-28T22:39:23.146Z,27.70
2018-09-28T22:41:50.875Z,27.80
2018-09-28T22:44:18.643Z,27.90
2018-09-28T22:46:46.472Z,27.60
2018-09-28T22:49:15.679Z,28.00
2018-09-28T22:51:47.668Z,27.60
2018-09-28T22:54:21.464Z,28.00
2018-09-28T22:56:49.096Z,27.70
2018-09-28T22:59:17.720Z,27.80
2018-09-28T23:01:45.387Z,28.30
2018-09-28T23:04:13.380Z,28.20
2018-09-28T23:06:41.277Z,28.10
2018-09-28T23:09:09.778Z,28.10
2018-09-28T23:11:40.801Z,27.90
2018-09-28T23:14:09.012Z,28.10
2018-09-28T23:16:37.391Z,28.00
2018-09-28T23:19:05.303Z,28.10
2018-09-28T23:21:34.315Z,27.80
2018-09-28T23:24:02.715Z,28.00
2018-09-28T23:26:31.356Z,28.00
2018-09-28T23:28:59.468Z,28.00
2018-09-28T23:31:27.518Z,28.00
2018-09-28T23:33:56.147Z,28.00
2018-09-28T23:36:24.643Z,28.00
2018-09-28T23:38:52.542Z,28.00
2018-09-28T23:41:21.029Z,28.00
2018-09-28T23:43:49.096Z,27.90
2018-09-28T23:46:16.880Z,27.90
2018-09-28T23:48:46.291Z,28.20
2018-09-28T23:51:14.921Z,27.80
2018-09-28T23:53:42.628Z,27.80
2018-09-28T23:56:11.310Z,27.90
2018-09-28T23:58:39.103Z,27.80
